Kalona, Iowa
Current Conditions -  °F | °C
As of 1:52 AM on Monday 24 Nov 2014 (Local Time) from KIOW Reporting Station
Overcast Overcast  
Wind Chill: -4°   Ceiling: 1200
Heat Index:   Visibility: 7mi
Dew Point:   Wind: 22mph
Humidity: 100%   Direction: 310°NW
Pressure: 29.25"   Gusts: 29mph
Location:  41.48°N, 91.71°W
Report Text: KIOW 240752Z AUTO 31019G25KT 7SM OVC012 02/02 A2925 RMK AO2 PK WND 31031/0711 SLP906 T00220022 $
Loading
Personal Weather Stations






























Interactive Weather Map New forecast layout! Learn more

10-Day Weather Forecast

Advertisements
Track Severe Weather on mobile